Time;durP1;ratioP1;P1;durP2;ratioP2;P2;SDS_P1;SDS_P2;PMS_P1;PMS_P2;Temp;Humidity;BMP_temperature;BMP_pressure;BME280_temperature;BME280_humidity;BME280_pressure;Samples;Min_cycle;Max_cycle;Signal;HPM_P1;HPM_P2
2022/03/30 00:05:48;;;;;;;16.52;14.82;;;;;;;;;;12301318;29;20039;-76
2022/03/30 00:11:53;;;;;;;14.52;12.88;;;;;;;;;;12300869;29;20043;-75
2022/03/30 00:17:55;;;;;;;16.70;13.40;;;;;;;;;;12283792;29;20031;-75
2022/03/30 00:23:57;;;;;;;20.33;16.65;;;;;;;;;;12283866;29;20031;-76
2022/03/30 00:29:58;;;;;;;19.83;16.08;;;;;;;;;;12309227;29;20039;-76
2022/03/30 00:36:00;;;;;;;16.77;14.23;;;;;;;;;;12286369;29;20291;-76
2022/03/30 00:42:03;;;;;;;17.25;15.43;;;;;;;;;;12283527;29;20042;-78
2022/03/30 00:48:05;;;;;;;13.90;11.65;;;;;;;;;;12283343;29;20043;-76
2022/03/30 00:54:06;;;;;;;11.82;10.20;;;;;;;;;;12311288;28;20050;-76
2022/03/30 01:00:09;;;;;;;12.35;11.13;;;;;;;;;;12300232;29;20388;-76
2022/03/30 01:06:11;;;;;;;11.68;10.48;;;;;;;;;;12300988;29;20507;-75
2022/03/30 01:12:13;;;;;;;9.83;8.37;;;;;;;;;;12309615;28;20047;-76
2022/03/30 01:18:14;;;;;;;13.00;9.45;;;;;;;;;;12317727;28;20035;-75
2022/03/30 01:24:17;;;;;;;14.27;10.02;;;;;;;;;;12291460;29;20039;-75
2022/03/30 01:36:39;;;;;;;12.18;9.40;;;;;;;;;;12308393;29;20156;-75
2022/03/30 01:42:41;;;;;;;11.63;10.47;;;;;;;;;;12290663;29;20031;-75
2022/03/30 01:48:43;;;;;;;11.90;8.70;;;;;;;;;;12316514;28;20024;-76
2022/03/30 01:54:45;;;;;;;14.80;11.10;;;;;;;;;;12293267;29;20032;-76
2022/03/30 02:00:47;;;;;;;12.70;9.70;;;;;;;;;;12289717;29;20396;-76
2022/03/30 02:06:49;;;;;;;13.63;10.35;;;;;;;;;;12307438;29;20043;-76
2022/03/30 02:12:50;;;;;;;12.00;7.90;;;;;;;;;;12288876;29;20043;-76
2022/03/30 02:18:52;;;;;;;8.90;7.03;;;;;;;;;;12305669;29;20039;-76
2022/03/30 02:24:54;;;;;;;8.97;7.10;;;;;;;;;;12303691;28;20035;-76
2022/03/30 02:30:56;;;;;;;7.22;5.50;;;;;;;;;;12303676;29;20047;-76
2022/03/30 02:36:58;;;;;;;9.57;7.55;;;;;;;;;;12302094;29;20513;-76
2022/03/30 02:42:59;;;;;;;9.20;6.50;;;;;;;;;;12283994;29;20033;-76
2022/03/30 02:49:01;;;;;;;9.48;7.07;;;;;;;;;;12283388;29;20043;-76
2022/03/30 02:55:03;;;;;;;8.40;6.82;;;;;;;;;;12283329;29;20028;-76
2022/03/30 03:01:05;;;;;;;7.78;6.28;;;;;;;;;;12300958;29;20042;-76
2022/03/30 03:07:07;;;;;;;8.25;6.45;;;;;;;;;;12319355;28;20054;-76
2022/03/30 03:13:09;;;;;;;6.45;5.47;;;;;;;;;;12282397;29;20046;-77
2022/03/30 03:19:11;;;;;;;6.55;5.78;;;;;;;;;;12282361;29;20039;-78
2022/03/30 03:25:13;;;;;;;7.72;6.20;;;;;;;;;;12282404;29;20039;-77
2022/03/30 03:31:15;;;;;;;7.67;5.93;;;;;;;;;;12292999;28;20042;-76
2022/03/30 03:37:16;;;;;;;4.97;4.47;;;;;;;;;;12282189;29;20070;-76
2022/03/30 03:43:18;;;;;;;8.32;7.50;;;;;;;;;;12298510;29;20381;-76
2022/03/30 03:49:20;;;;;;;9.35;8.00;;;;;;;;;;12310758;28;20055;-76
2022/03/30 03:55:22;;;;;;;7.70;6.90;;;;;;;;;;12280921;29;20035;-76
2022/03/30 04:01:24;;;;;;;8.83;7.20;;;;;;;;;;12280855;29;20028;-77
2022/03/30 04:07:25;;;;;;;9.68;7.60;;;;;;;;;;12298408;29;20249;-76
2022/03/30 04:13:27;;;;;;;7.20;6.50;;;;;;;;;;12280192;29;20062;-77
2022/03/30 04:19:30;;;;;;;8.88;7.97;;;;;;;;;;12297209;29;20031;-77
2022/03/30 04:25:32;;;;;;;9.27;7.38;;;;;;;;;;12280356;29;20040;-78
2022/03/30 04:31:34;;;;;;;8.13;7.22;;;;;;;;;;12280206;29;20040;-78
2022/03/30 04:37:35;;;;;;;12.60;10.60;;;;;;;;;;12280589;29;20556;-78
2022/03/30 04:43:37;;;;;;;12.57;9.77;;;;;;;;;;12311930;28;20047;-78
2022/03/30 04:49:39;;;;;;;12.77;9.93;;;;;;;;;;12288865;29;20055;-77
2022/03/30 04:55:41;;;;;;;9.55;8.10;;;;;;;;;;12307583;29;20031;-76
2022/03/30 05:01:42;;;;;;;10.82;8.88;;;;;;;;;;12290823;29;20043;-80
2022/03/30 05:07:44;;;;;;;12.20;8.82;;;;;;;;;;12291415;29;20039;-80
2022/03/30 05:13:46;;;;;;;10.50;9.15;;;;;;;;;;12307385;29;20043;-80
2022/03/30 05:19:48;;;;;;;8.65;7.78;;;;;;;;;;12320649;28;20043;-80
2022/03/30 05:25:50;;;;;;;17.88;14.00;;;;;;;;;;12294610;29;20043;-80
2022/03/30 05:31:52;;;;;;;11.35;9.82;;;;;;;;;;12290021;29;20415;-79
2022/03/30 05:37:54;;;;;;;11.05;9.95;;;;;;;;;;12306303;29;20055;-79
2022/03/30 05:43:56;;;;;;;12.50;11.27;;;;;;;;;;12280757;29;20023;-81
2022/03/30 05:49:58;;;;;;;12.52;11.23;;;;;;;;;;12276439;28;20055;-80
2022/03/30 05:55:59;;;;;;;12.77;10.48;;;;;;;;;;12244648;29;20032;-80
2022/03/30 06:02:02;;;;;;;12.48;11.18;;;;;;;;;;12255865;28;20042;-80
2022/03/30 06:08:04;;;;;;;12.57;10.83;;;;;;;;;;12291903;28;20046;-79
2022/03/30 06:14:06;;;;;;;12.73;9.90;;;;;;;;;;12287637;28;20306;-78
2022/03/30 06:20:08;;;;;;;13.40;9.65;;;;;;;;;;12275443;28;20043;-80
2022/03/30 06:26:09;;;;;;;14.75;10.93;;;;;;;;;;12284396;29;20039;-80
2022/03/30 06:32:11;;;;;;;12.48;11.27;;;;;;;;;;12264167;29;20052;-79
2022/03/30 06:38:13;;;;;;;14.63;13.30;;;;;;;;;;12265488;29;20417;-80
2022/03/30 06:44:16;;;;;;;10.98;9.82;;;;;;;;;;12264045;28;20031;-81
2022/03/30 06:50:19;;;;;;;26.33;18.48;;;;;;;;;;12297435;28;20051;-78
2022/03/30 06:56:21;;;;;;;18.20;13.77;;;;;;;;;;12287617;28;20023;-78
2022/03/30 07:02:23;;;;;;;17.43;14.27;;;;;;;;;;12292715;29;20055;-78
2022/03/30 07:14:46;;;;;;;11.05;10.00;;;;;;;;;;12290276;28;20035;-77
2022/03/30 07:20:48;;;;;;;13.98;10.55;;;;;;;;;;12257918;29;20044;-78
2022/03/30 07:26:50;;;;;;;12.63;11.32;;;;;;;;;;12270070;29;20040;-80
2022/03/30 07:32:52;;;;;;;10.93;9.90;;;;;;;;;;12289402;28;20051;-81
2022/03/30 07:38:54;;;;;;;13.77;12.38;;;;;;;;;;12287616;29;20404;-80
2022/03/30 07:44:56;;;;;;;13.73;11.73;;;;;;;;;;12269590;28;20062;-80
2022/03/30 07:50:58;;;;;;;20.03;15.60;;;;;;;;;;12283196;28;20039;-81
2022/03/30 07:57:00;;;;;;;14.23;12.70;;;;;;;;;;12270410;28;20019;-80
2022/03/30 08:03:03;;;;;;;12.57;10.52;;;;;;;;;;12260091;29;20042;-80
2022/03/30 08:09:05;;;;;;;13.20;11.73;;;;;;;;;;12281124;28;20050;-79
2022/03/30 08:15:08;;;;;;;13.03;11.70;;;;;;;;;;12287023;29;20035;-80
2022/03/30 08:27:31;;;;;;;15.70;12.65;;;;;;;;;;12290783;29;20062;-80
2022/03/30 08:33:33;;;;;;;18.08;13.82;;;;;;;;;;12296602;28;20058;-79
2022/03/30 08:39:35;;;;;;;16.58;10.05;;;;;;;;;;12287411;28;20050;-79
2022/03/30 08:45:37;;;;;;;12.18;9.18;;;;;;;;;;12280784;28;20475;-77
2022/03/30 08:51:40;;;;;;;11.13;9.80;;;;;;;;;;12308350;29;20050;-81
2022/03/30 08:57:42;;;;;;;15.13;10.13;;;;;;;;;;12284679;29;20031;-88
2022/03/30 09:03:57;;;;;;;10.45;7.97;;;;;;;;;;12271315;28;20035;-80
2022/03/30 09:10:00;;;;;;;9.07;7.63;;;;;;;;;;12285062;28;20050;-90
2022/03/30 09:16:01;;;;;;;;;;;;;;;;;;12291916;28;20032;-89
2022/03/30 09:22:03;;;;;;;8.98;7.80;;;;;;;;;;12288002;28;19910;-82
2022/03/30 09:28:05;;;;;;;7.57;6.75;;;;;;;;;;12275175;28;20503;-81
2022/03/30 09:34:07;;;;;;;6.47;5.45;;;;;;;;;;12290845;28;20488;-86
2022/03/30 09:40:12;;;;;;;12.43;7.00;;;;;;;;;;12259908;28;20055;-81
2022/03/30 09:46:15;;;;;;;12.88;9.10;;;;;;;;;;12276176;28;20034;-82
2022/03/30 09:52:20;;;;;;;12.25;9.65;;;;;;;;;;12279634;28;20492;-83
2022/03/30 09:58:23;;;;;;;10.52;9.07;;;;;;;;;;12272200;29;20043;-82
2022/03/30 10:04:25;;;;;;;;;;;;;;;;;;12283559;28;20047;-82
2022/03/30 10:10:26;;;;;;;9.88;7.60;;;;;;;;;;12290624;28;19925;-83
2022/03/30 10:16:29;;;;;;;11.17;7.10;;;;;;;;;;12280868;28;20046;-80
2022/03/30 10:22:50;;;;;;;9.95;7.20;;;;;;;;;;12282122;28;20503;-82
2022/03/30 10:29:00;;;;;;;9.20;7.03;;;;;;;;;;12286749;28;20046;-82
2022/03/30 10:35:05;;;;;;;9.52;6.20;;;;;;;;;;12285062;28;20406;-81
2022/03/30 10:41:10;;;;;;;9.23;6.60;;;;;;;;;;12264564;28;20082;-82
2022/03/30 10:47:20;;;;;;;7.32;5.68;;;;;;;;;;12257776;28;20034;-82
2022/03/30 10:53:31;;;;;;;8.15;6.50;;;;;;;;;;12275175;28;20035;-82
2022/03/30 10:59:33;;;;;;;8.55;6.10;;;;;;;;;;12277698;28;20031;-82
2022/03/30 11:05:35;;;;;;;6.00;5.03;;;;;;;;;;12273264;28;20084;-80
2022/03/30 11:11:43;;;;;;;7.95;6.10;;;;;;;;;;12242972;29;20052;-79
2022/03/30 11:17:45;;;;;;;9.63;6.25;;;;;;;;;;12272738;28;20027;-80
2022/03/30 11:24:02;;;;;;;9.45;7.35;;;;;;;;;;12293297;28;20395;-79
2022/03/30 11:30:09;;;;;;;6.10;5.47;;;;;;;;;;12279796;28;20507;-79
2022/03/30 11:36:31;;;;;;;9.18;6.85;;;;;;;;;;12285133;28;20509;-79
2022/03/30 11:42:33;;;;;;;7.40;6.47;;;;;;;;;;12281961;28;20031;-78
2022/03/30 11:48:36;;;;;;;7.43;5.00;;;;;;;;;;12299823;28;20622;-79
2022/03/30 11:54:45;;;;;;;6.53;5.93;;;;;;;;;;12281344;28;20031;-76
2022/03/30 12:00:47;;;;;;;8.70;7.82;;;;;;;;;;12298736;28;20039;-76
2022/03/30 12:06:49;;;;;;;3.67;3.37;;;;;;;;;;12272950;28;20511;-75
2022/03/30 12:12:51;;;;;;;6.00;5.40;;;;;;;;;;12232200;29;20411;-76
2022/03/30 12:18:53;;;;;;;7.15;5.75;;;;;;;;;;12233445;29;20031;-76
2022/03/30 12:24:55;;;;;;;;;;;;;;;;;;12234074;29;20043;-76
2022/03/30 12:30:56;;;;;;;8.63;6.97;;;;;;;;;;12233014;29;20343;-76
2022/03/30 12:37:01;;;;;;;9.47;6.60;;;;;;;;;;12256043;28;20254;-76
2022/03/30 12:43:03;;;;;;;9.95;7.72;;;;;;;;;;12233028;29;20035;-76
2022/03/30 12:49:06;;;;;;;9.50;7.43;;;;;;;;;;12249605;29;20040;-76
2022/03/30 12:55:20;;;;;;;8.18;7.28;;;;;;;;;;12232566;29;20279;-75
2022/03/30 13:01:27;;;;;;;7.18;6.03;;;;;;;;;;12234470;29;20393;-75
2022/03/30 13:07:29;;;;;;;12.77;9.90;;;;;;;;;;12250645;29;20035;-75
2022/03/30 13:13:32;;;;;;;10.20;9.10;;;;;;;;;;12243004;29;20039;-76
2022/03/30 13:19:34;;;;;;;;;;;;;;;;;;12260765;29;20512;-75
2022/03/30 13:25:40;;;;;;;12.00;8.90;;;;;;;;;;12260674;29;20395;-75
2022/03/30 13:31:48;;;;;;;14.35;10.80;;;;;;;;;;12260237;29;20048;-75
2022/03/30 13:37:50;;;;;;;7.78;6.80;;;;;;;;;;12261114;29;20063;-75
2022/03/30 13:43:53;;;;;;;;;;;;;;;;;;12260423;29;20098;-75
2022/03/30 13:49:55;;;;;;;11.82;8.60;;;;;;;;;;12259804;29;19918;-75
2022/03/30 13:55:59;;;;;;;8.60;7.20;;;;;;;;;;12259667;29;20043;-75
2022/03/30 14:02:01;;;;;;;7.68;6.47;;;;;;;;;;12259501;29;20043;-75
2022/03/30 14:08:02;;;;;;;10.85;6.72;;;;;;;;;;12256526;28;20386;-76
2022/03/30 14:14:05;;;;;;;7.80;6.20;;;;;;;;;;12258547;29;20052;-76
2022/03/30 14:20:07;;;;;;;12.27;8.50;;;;;;;;;;12257568;29;20031;-75
2022/03/30 14:26:08;;;;;;;8.37;7.03;;;;;;;;;;12241147;29;20059;-75
2022/03/30 14:32:10;;;;;;;8.63;7.47;;;;;;;;;;12241116;29;20046;-76
2022/03/30 14:38:12;;;;;;;8.48;7.35;;;;;;;;;;12242733;28;20062;-79
2022/03/30 14:44:13;;;;;;;11.82;8.90;;;;;;;;;;12241423;29;20058;-76
2022/03/30 14:50:15;;;;;;;9.88;7.53;;;;;;;;;;12240237;29;20048;-75
2022/03/30 14:56:17;;;;;;;9.30;7.00;;;;;;;;;;12239561;29;20039;-74
2022/03/30 15:02:19;;;;;;;8.90;7.83;;;;;;;;;;12239494;28;20047;-75
2022/03/30 15:08:21;;;;;;;9.23;7.00;;;;;;;;;;12239695;29;20784;-75
2022/03/30 15:14:23;;;;;;;8.50;6.53;;;;;;;;;;12239241;29;20048;-75
2022/03/30 15:20:25;;;;;;;7.82;6.35;;;;;;;;;;12251593;28;20046;-74
2022/03/30 15:26:27;;;;;;;6.93;6.23;;;;;;;;;;12255479;29;20044;-75
2022/03/30 15:32:28;;;;;;;6.10;5.23;;;;;;;;;;12237027;29;20054;-75
2022/03/30 15:38:30;;;;;;;8.93;5.50;;;;;;;;;;12252852;29;20051;-75
2022/03/30 15:44:34;;;;;;;7.07;5.13;;;;;;;;;;12248061;28;20050;-74
2022/03/30 15:50:37;;;;;;;6.78;4.30;;;;;;;;;;12251766;29;20179;-75
2022/03/30 15:56:38;;;;;;;;;;;;;;;;;;12234913;29;20043;-75
2022/03/30 16:02:40;;;;;;;5.38;4.68;;;;;;;;;;12250608;28;19915;-75
2022/03/30 16:08:54;;;;;;;7.33;3.60;;;;;;;;;;12250779;29;20028;-77
2022/03/30 16:14:59;;;;;;;8.70;5.10;;;;;;;;;;12245694;28;20039;-75
2022/03/30 16:21:00;;;;;;;6.65;5.13;;;;;;;;;;12234210;29;20496;-75
2022/03/30 16:27:03;;;;;;;5.78;4.22;;;;;;;;;;12250260;29;20477;-76
2022/03/30 16:33:05;;;;;;;4.78;4.30;;;;;;;;;;12251836;29;20048;-75
2022/03/30 16:39:07;;;;;;;8.00;5.33;;;;;;;;;;12251861;29;20055;-76
2022/03/30 16:45:09;;;;;;;9.63;6.38;;;;;;;;;;12265792;28;20043;-75
2022/03/30 16:51:12;;;;;;;6.88;5.35;;;;;;;;;;12270175;28;20050;-76
2022/03/30 16:57:13;;;;;;;8.27;3.97;;;;;;;;;;12261857;29;20032;-76
2022/03/30 17:03:15;;;;;;;7.50;3.50;;;;;;;;;;12244935;28;20047;-76
2022/03/30 17:15:38;;;;;;;4.13;3.22;;;;;;;;;;12244131;29;20055;-82
2022/03/30 17:21:40;;;;;;;6.10;4.10;;;;;;;;;;12244165;29;20035;-75
2022/03/30 17:27:42;;;;;;;8.00;4.10;;;;;;;;;;12260612;29;20032;-75
2022/03/30 17:33:44;;;;;;;5.57;3.60;;;;;;;;;;12261339;29;20055;-74
2022/03/30 17:39:48;;;;;;;5.28;3.50;;;;;;;;;;12260410;29;20054;-75
2022/03/30 17:45:50;;;;;;;5.53;3.40;;;;;;;;;;12273175;28;20040;-77
2022/03/30 17:51:53;;;;;;;6.00;3.00;;;;;;;;;;12258136;29;20046;-82
2022/03/30 17:57:56;;;;;;;5.65;3.13;;;;;;;;;;12242485;29;20036;-77
2022/03/30 18:03:57;;;;;;;;;;;;;;;;;;12258100;29;20032;-75
2022/03/30 18:09:59;;;;;;;7.30;4.22;;;;;;;;;;12256193;29;19922;-76
2022/03/30 18:16:01;;;;;;;7.03;4.15;;;;;;;;;;12256669;29;20042;-77
2022/03/30 18:22:03;;;;;;;5.72;5.18;;;;;;;;;;12256544;29;20050;-78
2022/03/30 18:28:09;;;;;;;6.90;4.00;;;;;;;;;;12256191;29;20040;-78
2022/03/30 18:34:11;;;;;;;8.10;4.38;;;;;;;;;;12255368;29;20048;-78
2022/03/30 18:40:13;;;;;;;4.90;3.40;;;;;;;;;;12239212;29;20056;-79
2022/03/30 18:46:15;;;;;;;6.28;4.43;;;;;;;;;;12238907;29;20032;-79
2022/03/30 18:52:17;;;;;;;8.63;4.63;;;;;;;;;;12252720;29;20137;-79
2022/03/30 18:58:19;;;;;;;7.55;5.10;;;;;;;;;;12236910;29;20674;-79
2022/03/30 19:04:23;;;;;;;7.05;5.40;;;;;;;;;;12253535;29;20039;-78
2022/03/30 19:10:25;;;;;;;7.82;6.00;;;;;;;;;;12252737;29;20059;-78
2022/03/30 19:16:27;;;;;;;9.15;5.90;;;;;;;;;;12252717;28;20036;-78
2022/03/30 19:22:29;;;;;;;5.43;3.92;;;;;;;;;;12235773;29;20035;-78
2022/03/30 19:28:31;;;;;;;6.17;5.13;;;;;;;;;;12235762;29;20485;-78
2022/03/30 19:34:33;;;;;;;6.03;4.60;;;;;;;;;;12235523;29;20303;-78
2022/03/30 19:40:34;;;;;;;7.53;4.93;;;;;;;;;;12252417;29;20051;-79
2022/03/30 19:46:36;;;;;;;10.10;6.80;;;;;;;;;;12234486;29;20094;-79
2022/03/30 19:52:38;;;;;;;7.38;5.57;;;;;;;;;;12268255;29;20023;-79
2022/03/30 19:58:40;;;;;;;8.85;6.45;;;;;;;;;;12235138;29;20409;-79
2022/03/30 20:04:42;;;;;;;8.27;6.40;;;;;;;;;;12252223;29;20039;-79
2022/03/30 20:10:44;;;;;;;7.10;5.87;;;;;;;;;;12233982;29;20069;-79
2022/03/30 20:16:46;;;;;;;8.02;5.28;;;;;;;;;;12233841;29;20633;-78
2022/03/30 20:22:48;;;;;;;7.90;5.63;;;;;;;;;;12251191;29;20508;-79
2022/03/30 20:28:50;;;;;;;7.60;5.85;;;;;;;;;;12267844;28;20047;-79
2022/03/30 20:34:52;;;;;;;8.53;6.90;;;;;;;;;;12234080;29;20055;-79
2022/03/30 20:40:54;;;;;;;9.38;7.70;;;;;;;;;;12234057;29;20052;-78
2022/03/30 20:46:56;;;;;;;7.93;5.47;;;;;;;;;;12236665;29;20047;-78
2022/03/30 20:52:58;;;;;;;9.05;6.93;;;;;;;;;;12233144;29;20387;-78
2022/03/30 20:59:00;;;;;;;9.13;6.17;;;;;;;;;;12233195;29;20509;-78
2022/03/30 21:05:02;;;;;;;7.82;6.10;;;;;;;;;;12234005;29;20039;-78
2022/03/30 21:11:03;;;;;;;5.45;4.13;;;;;;;;;;12233102;29;20050;-77
2022/03/30 21:17:06;;;;;;;6.40;4.63;;;;;;;;;;12232805;29;20036;-78
2022/03/30 21:23:09;;;;;;;7.57;5.57;;;;;;;;;;12232567;29;20044;-79
2022/03/30 21:29:12;;;;;;;10.93;8.40;;;;;;;;;;12254749;29;20035;-78
2022/03/30 21:35:14;;;;;;;10.63;7.53;;;;;;;;;;12258659;29;20047;-79
2022/03/30 21:41:15;;;;;;;8.77;7.28;;;;;;;;;;12242205;29;20060;-79
2022/03/30 21:47:17;;;;;;;9.82;6.40;;;;;;;;;;12240750;29;20031;-79
2022/03/30 21:53:19;;;;;;;10.07;6.65;;;;;;;;;;12240452;29;20549;-79
2022/03/30 21:59:21;;;;;;;7.63;6.15;;;;;;;;;;12250753;29;20046;-79
2022/03/30 22:05:22;;;;;;;11.18;7.05;;;;;;;;;;12240526;29;20377;-79
2022/03/30 22:11:24;;;;;;;8.43;6.75;;;;;;;;;;12240399;29;20044;-79
2022/03/30 22:17:26;;;;;;;9.15;7.13;;;;;;;;;;12256535;29;20040;-79
2022/03/30 22:23:28;;;;;;;9.32;6.78;;;;;;;;;;12249114;29;20036;-79
2022/03/30 22:29:30;;;;;;;10.57;8.38;;;;;;;;;;12238842;29;20047;-78
2022/03/30 22:35:44;;;;;;;9.38;6.97;;;;;;;;;;12256567;29;20465;-79
2022/03/30 22:41:46;;;;;;;9.13;6.85;;;;;;;;;;12253004;29;20028;-79
2022/03/30 22:47:48;;;;;;;9.57;8.00;;;;;;;;;;12259777;29;20486;-79
2022/03/30 22:53:49;;;;;;;9.15;7.22;;;;;;;;;;12238157;29;20048;-79
2022/03/30 22:59:51;;;;;;;9.48;7.03;;;;;;;;;;12238071;29;20023;-78
2022/03/30 23:12:13;;;;;;;8.88;6.03;;;;;;;;;;12239524;29;20047;-78
2022/03/30 23:18:16;;;;;;;6.10;4.90;;;;;;;;;;12245808;29;20556;-79
2022/03/30 23:24:18;;;;;;;8.65;6.30;;;;;;;;;;12235727;29;20031;-78
2022/03/30 23:30:20;;;;;;;13.53;10.23;;;;;;;;;;12236241;29;20409;-78
2022/03/30 23:36:41;;;;;;;16.23;11.38;;;;;;;;;;12254478;29;20067;-78
2022/03/30 23:42:43;;;;;;;16.42;13.00;;;;;;;;;;12255177;29;20385;-79
2022/03/30 23:48:45;;;;;;;13.73;11.18;;;;;;;;;;12269943;28;20291;-79
2022/03/30 23:54:47;;;;;;;16.52;12.18;;;;;;;;;;12238492;29;20051;-78
